sensor_id;sensor_type;location;lat;lon;timestamp;temperature;humidity
16521;DHT22;8373;48.110;11.522;2022-11-14T00:00:05;7.70;90.30
16521;DHT22;8373;48.110;11.522;2022-11-14T00:02:32;7.70;90.40
16521;DHT22;8373;48.110;11.522;2022-11-14T00:04:59;7.70;90.50
16521;DHT22;8373;48.110;11.522;2022-11-14T00:07:29;7.50;90.10
16521;DHT22;8373;48.110;11.522;2022-11-14T00:09:57;7.50;90.30
16521;DHT22;8373;48.110;11.522;2022-11-14T00:12:24;7.50;90.40
16521;DHT22;8373;48.110;11.522;2022-11-14T00:14:51;7.70;90.60
16521;DHT22;8373;48.110;11.522;2022-11-14T00:17:20;7.80;90.50
16521;DHT22;8373;48.110;11.522;2022-11-14T00:19:47;7.90;90.40
16521;DHT22;8373;48.110;11.522;2022-11-14T00:22:14;8.00;90.20
16521;DHT22;8373;48.110;11.522;2022-11-14T00:24:41;7.90;89.50
16521;DHT22;8373;48.110;11.522;2022-11-14T00:27:09;7.90;89.30
16521;DHT22;8373;48.110;11.522;2022-11-14T00:29:37;7.90;89.00
16521;DHT22;8373;48.110;11.522;2022-11-14T00:32:04;8.00;89.30
16521;DHT22;8373;48.110;11.522;2022-11-14T00:34:32;8.00;89.10
16521;DHT22;8373;48.110;11.522;2022-11-14T00:36:59;8.10;89.20
16521;DHT22;8373;48.110;11.522;2022-11-14T00:39:26;8.10;89.00
16521;DHT22;8373;48.110;11.522;2022-11-14T00:41:53;8.20;88.90
16521;DHT22;8373;48.110;11.522;2022-11-14T00:44:21;8.20;88.70
16521;DHT22;8373;48.110;11.522;2022-11-14T00:46:48;8.10;88.50
16521;DHT22;8373;48.110;11.522;2022-11-14T00:49:15;8.10;88.70
16521;DHT22;8373;48.110;11.522;2022-11-14T00:51:42;7.90;87.70
16521;DHT22;8373;48.110;11.522;2022-11-14T00:54:09;7.70;88.10
16521;DHT22;8373;48.110;11.522;2022-11-14T00:56:36;7.30;89.10
16521;DHT22;8373;48.110;11.522;2022-11-14T00:59:03;7.10;90.20
16521;DHT22;8373;48.110;11.522;2022-11-14T01:01:50;6.90;90.90
16521;DHT22;8373;48.110;11.522;2022-11-14T01:04:17;7.00;91.50
16521;DHT22;8373;48.110;11.522;2022-11-14T01:06:44;7.00;91.70
16521;DHT22;8373;48.110;11.522;2022-11-14T01:09:11;7.10;91.70
16521;DHT22;8373;48.110;11.522;2022-11-14T01:11:38;7.10;91.40
16521;DHT22;8373;48.110;11.522;2022-11-14T01:14:06;7.10;91.40
16521;DHT22;8373;48.110;11.522;2022-11-14T01:16:33;7.20;91.70
16521;DHT22;8373;48.110;11.522;2022-11-14T01:19:02;7.20;91.30
16521;DHT22;8373;48.110;11.522;2022-11-14T01:21:29;7.30;91.30
16521;DHT22;8373;48.110;11.522;2022-11-14T01:23:56;7.40;91.30
16521;DHT22;8373;48.110;11.522;2022-11-14T01:26:23;7.50;91.10
16521;DHT22;8373;48.110;11.522;2022-11-14T01:28:50;7.50;90.70
16521;DHT22;8373;48.110;11.522;2022-11-14T01:31:18;7.60;90.40
16521;DHT22;8373;48.110;11.522;2022-11-14T01:33:48;7.60;90.10
16521;DHT22;8373;48.110;11.522;2022-11-14T01:36:16;7.60;89.70
16521;DHT22;8373;48.110;11.522;2022-11-14T01:38:44;7.70;89.50
16521;DHT22;8373;48.110;11.522;2022-11-14T01:41:12;7.70;89.00
16521;DHT22;8373;48.110;11.522;2022-11-14T01:43:40;7.70;88.30
16521;DHT22;8373;48.110;11.522;2022-11-14T01:46:11;7.70;88.50
16521;DHT22;8373;48.110;11.522;2022-11-14T01:48:41;7.60;88.40
16521;DHT22;8373;48.110;11.522;2022-11-14T01:51:18;7.60;88.50
16521;DHT22;8373;48.110;11.522;2022-11-14T01:53:48;7.60;88.60
16521;DHT22;8373;48.110;11.522;2022-11-14T01:56:19;7.60;88.50
16521;DHT22;8373;48.110;11.522;2022-11-14T01:58:53;7.60;88.50
16521;DHT22;8373;48.110;11.522;2022-11-14T02:01:20;7.60;88.50
16521;DHT22;8373;48.110;11.522;2022-11-14T02:03:49;7.60;88.40
16521;DHT22;8373;48.110;11.522;2022-11-14T02:06:21;7.70;88.40
16521;DHT22;8373;48.110;11.522;2022-11-14T02:08:50;7.60;87.80
16521;DHT22;8373;48.110;11.522;2022-11-14T02:11:18;7.70;87.80
16521;DHT22;8373;48.110;11.522;2022-11-14T02:13:45;7.80;87.70
16521;DHT22;8373;48.110;11.522;2022-11-14T02:16:12;7.80;87.50
16521;DHT22;8373;48.110;11.522;2022-11-14T02:18:39;7.90;87.00
16521;DHT22;8373;48.110;11.522;2022-11-14T02:21:07;7.70;86.50
16521;DHT22;8373;48.110;11.522;2022-11-14T02:23:34;7.60;86.60
16521;DHT22;8373;48.110;11.522;2022-11-14T02:26:01;7.60;87.00
16521;DHT22;8373;48.110;11.522;2022-11-14T02:28:29;7.60;87.30
16521;DHT22;8373;48.110;11.522;2022-11-14T02:30:56;7.60;87.40
16521;DHT22;8373;48.110;11.522;2022-11-14T02:33:23;7.60;87.30
16521;DHT22;8373;48.110;11.522;2022-11-14T02:35:50;7.60;87.50
16521;DHT22;8373;48.110;11.522;2022-11-14T02:38:18;7.60;87.50
16521;DHT22;8373;48.110;11.522;2022-11-14T02:40:45;7.70;87.00
16521;DHT22;8373;48.110;11.522;2022-11-14T02:43:12;7.50;86.50
16521;DHT22;8373;48.110;11.522;2022-11-14T02:45:39;7.40;86.90
16521;DHT22;8373;48.110;11.522;2022-11-14T02:48:06;7.20;87.80
16521;DHT22;8373;48.110;11.522;2022-11-14T02:50:33;7.20;88.40
16521;DHT22;8373;48.110;11.522;2022-11-14T02:53:00;7.20;88.80
16521;DHT22;8373;48.110;11.522;2022-11-14T02:55:29;7.20;88.90
16521;DHT22;8373;48.110;11.522;2022-11-14T02:57:56;7.20;88.90
16521;DHT22;8373;48.110;11.522;2022-11-14T03:00:23;7.30;89.00
16521;DHT22;8373;48.110;11.522;2022-11-14T03:02:52;7.40;89.00
16521;DHT22;8373;48.110;11.522;2022-11-14T03:05:19;7.40;89.00
16521;DHT22;8373;48.110;11.522;2022-11-14T03:07:46;7.40;88.70
16521;DHT22;8373;48.110;11.522;2022-11-14T03:10:13;7.50;88.50
16521;DHT22;8373;48.110;11.522;2022-11-14T03:12:42;7.50;88.10
16521;DHT22;8373;48.110;11.522;2022-11-14T03:15:09;7.60;87.90
16521;DHT22;8373;48.110;11.522;2022-11-14T03:17:37;7.60;87.60
16521;DHT22;8373;48.110;11.522;2022-11-14T03:20:05;7.70;87.60
16521;DHT22;8373;48.110;11.522;2022-11-14T03:22:32;7.60;87.20
16521;DHT22;8373;48.110;11.522;2022-11-14T03:24:59;7.70;87.10
16521;DHT22;8373;48.110;11.522;2022-11-14T03:27:26;7.70;87.30
16521;DHT22;8373;48.110;11.522;2022-11-14T03:29:55;7.70;87.10
16521;DHT22;8373;48.110;11.522;2022-11-14T03:32:22;7.80;86.90
16521;DHT22;8373;48.110;11.522;2022-11-14T03:34:49;7.70;86.50
16521;DHT22;8373;48.110;11.522;2022-11-14T03:37:16;7.70;86.10
16521;DHT22;8373;48.110;11.522;2022-11-14T03:39:43;7.60;86.40
16521;DHT22;8373;48.110;11.522;2022-11-14T03:42:10;7.60;86.40
16521;DHT22;8373;48.110;11.522;2022-11-14T03:44:37;7.40;86.00
16521;DHT22;8373;48.110;11.522;2022-11-14T03:47:05;7.10;86.70
16521;DHT22;8373;48.110;11.522;2022-11-14T03:49:32;7.00;87.90
16521;DHT22;8373;48.110;11.522;2022-11-14T03:51:59;7.00;89.20
16521;DHT22;8373;48.110;11.522;2022-11-14T03:54:26;7.00;89.70
16521;DHT22;8373;48.110;11.522;2022-11-14T03:56:53;7.00;89.70
16521;DHT22;8373;48.110;11.522;2022-11-14T03:59:20;6.80;89.30
16521;DHT22;8373;48.110;11.522;2022-11-14T04:01:47;7.00;89.60
16521;DHT22;8373;48.110;11.522;2022-11-14T04:04:16;7.00;89.40
16521;DHT22;8373;48.110;11.522;2022-11-14T04:06:43;7.00;89.20
16521;DHT22;8373;48.110;11.522;2022-11-14T04:09:10;7.00;88.90
16521;DHT22;8373;48.110;11.522;2022-11-14T04:11:37;7.00;89.20
16521;DHT22;8373;48.110;11.522;2022-11-14T04:14:04;7.20;89.20
16521;DHT22;8373;48.110;11.522;2022-11-14T04:16:31;7.20;88.30
16521;DHT22;8373;48.110;11.522;2022-11-14T04:18:58;7.30;87.20
16521;DHT22;8373;48.110;11.522;2022-11-14T04:21:27;7.20;86.50
16521;DHT22;8373;48.110;11.522;2022-11-14T04:23:54;7.10;86.60
16521;DHT22;8373;48.110;11.522;2022-11-14T04:26:20;7.10;87.30
16521;DHT22;8373;48.110;11.522;2022-11-14T04:28:47;7.10;87.30
16521;DHT22;8373;48.110;11.522;2022-11-14T04:31:14;7.10;87.80
16521;DHT22;8373;48.110;11.522;2022-11-14T04:33:41;7.20;88.00
16521;DHT22;8373;48.110;11.522;2022-11-14T04:36:08;7.20;87.30
16521;DHT22;8373;48.110;11.522;2022-11-14T04:38:37;7.10;87.10
16521;DHT22;8373;48.110;11.522;2022-11-14T04:41:04;7.20;87.50
16521;DHT22;8373;48.110;11.522;2022-11-14T04:43:31;7.10;87.50
16521;DHT22;8373;48.110;11.522;2022-11-14T04:45:58;7.20;87.80
16521;DHT22;8373;48.110;11.522;2022-11-14T04:48:25;7.20;87.70
16521;DHT22;8373;48.110;11.522;2022-11-14T04:50:52;7.20;87.90
16521;DHT22;8373;48.110;11.522;2022-11-14T04:53:19;7.30;88.30
16521;DHT22;8373;48.110;11.522;2022-11-14T04:55:47;7.30;88.20
16521;DHT22;8373;48.110;11.522;2022-11-14T04:58:14;7.30;88.10
16521;DHT22;8373;48.110;11.522;2022-11-14T05:00:41;7.30;88.00
16521;DHT22;8373;48.110;11.522;2022-11-14T05:03:08;7.20;87.20
16521;DHT22;8373;48.110;11.522;2022-11-14T05:05:35;7.00;87.40
16521;DHT22;8373;48.110;11.522;2022-11-14T05:08:02;6.80;88.20
16521;DHT22;8373;48.110;11.522;2022-11-14T05:10:29;6.70;89.10
16521;DHT22;8373;48.110;11.522;2022-11-14T05:12:57;6.60;89.70
16521;DHT22;8373;48.110;11.522;2022-11-14T05:15:24;6.50;90.10
16521;DHT22;8373;48.110;11.522;2022-11-14T05:17:51;6.40;90.40
16521;DHT22;8373;48.110;11.522;2022-11-14T05:20:18;6.30;90.60
16521;DHT22;8373;48.110;11.522;2022-11-14T05:22:45;6.20;91.00
16521;DHT22;8373;48.110;11.522;2022-11-14T05:25:12;6.30;91.40
16521;DHT22;8373;48.110;11.522;2022-11-14T05:27:39;6.30;91.30
16521;DHT22;8373;48.110;11.522;2022-11-14T05:30:09;6.30;91.20
16521;DHT22;8373;48.110;11.522;2022-11-14T05:32:36;6.40;91.20
16521;DHT22;8373;48.110;11.522;2022-11-14T05:35:04;6.50;91.00
16521;DHT22;8373;48.110;11.522;2022-11-14T05:37:32;6.50;90.80
16521;DHT22;8373;48.110;11.522;2022-11-14T05:39:59;6.40;90.50
16521;DHT22;8373;48.110;11.522;2022-11-14T05:42:26;6.50;90.60
16521;DHT22;8373;48.110;11.522;2022-11-14T05:44:54;6.50;90.60
16521;DHT22;8373;48.110;11.522;2022-11-14T05:47:22;6.10;90.00
16521;DHT22;8373;48.110;11.522;2022-11-14T05:49:49;6.10;90.50
16521;DHT22;8373;48.110;11.522;2022-11-14T05:52:16;6.20;90.60
16521;DHT22;8373;48.110;11.522;2022-11-14T05:54:43;6.40;90.50
16521;DHT22;8373;48.110;11.522;2022-11-14T05:57:10;6.40;90.10
16521;DHT22;8373;48.110;11.522;2022-11-14T05:59:37;6.40;90.00
16521;DHT22;8373;48.110;11.522;2022-11-14T06:02:03;6.30;89.60
16521;DHT22;8373;48.110;11.522;2022-11-14T06:04:32;6.40;89.80
16521;DHT22;8373;48.110;11.522;2022-11-14T06:06:59;6.40;88.90
16521;DHT22;8373;48.110;11.522;2022-11-14T06:09:26;6.40;88.70
16521;DHT22;8373;48.110;11.522;2022-11-14T06:11:53;6.40;88.60
16521;DHT22;8373;48.110;11.522;2022-11-14T06:14:20;6.40;88.20
16521;DHT22;8373;48.110;11.522;2022-11-14T06:16:47;6.40;88.00
16521;DHT22;8373;48.110;11.522;2022-11-14T06:19:14;6.40;87.70
16521;DHT22;8373;48.110;11.522;2022-11-14T06:21:42;6.30;87.50
16521;DHT22;8373;48.110;11.522;2022-11-14T06:24:09;6.30;88.10
16521;DHT22;8373;48.110;11.522;2022-11-14T06:26:36;6.20;87.20
16521;DHT22;8373;48.110;11.522;2022-11-14T06:29:03;6.10;86.90
16521;DHT22;8373;48.110;11.522;2022-11-14T06:31:30;5.90;86.70
16521;DHT22;8373;48.110;11.522;2022-11-14T06:33:57;5.90;87.20
16521;DHT22;8373;48.110;11.522;2022-11-14T06:36:24;5.90;87.40
16521;DHT22;8373;48.110;11.522;2022-11-14T06:38:52;5.90;87.80
16521;DHT22;8373;48.110;11.522;2022-11-14T06:41:20;6.00;87.40
16521;DHT22;8373;48.110;11.522;2022-11-14T06:43:49;6.10;87.30
16521;DHT22;8373;48.110;11.522;2022-11-14T06:46:19;6.10;86.70
16521;DHT22;8373;48.110;11.522;2022-11-14T06:48:46;6.20;86.20
16521;DHT22;8373;48.110;11.522;2022-11-14T06:51:15;6.30;86.00
16521;DHT22;8373;48.110;11.522;2022-11-14T06:53:43;6.40;85.70
16521;DHT22;8373;48.110;11.522;2022-11-14T06:56:12;6.40;85.40
16521;DHT22;8373;48.110;11.522;2022-11-14T06:58:41;6.50;84.90
16521;DHT22;8373;48.110;11.522;2022-11-14T07:01:11;6.60;84.60
16521;DHT22;8373;48.110;11.522;2022-11-14T07:03:39;6.60;84.50
16521;DHT22;8373;48.110;11.522;2022-11-14T07:06:06;6.60;85.00
16521;DHT22;8373;48.110;11.522;2022-11-14T07:08:34;6.70;85.60
16521;DHT22;8373;48.110;11.522;2022-11-14T07:11:02;6.80;85.60
16521;DHT22;8373;48.110;11.522;2022-11-14T07:13:31;6.90;85.20
16521;DHT22;8373;48.110;11.522;2022-11-14T07:15:58;7.00;84.90
16521;DHT22;8373;48.110;11.522;2022-11-14T07:18:28;6.70;86.40
16521;DHT22;8373;48.110;11.522;2022-11-14T07:20:59;6.50;86.80
16521;DHT22;8373;48.110;11.522;2022-11-14T07:23:27;6.40;86.30
16521;DHT22;8373;48.110;11.522;2022-11-14T07:25:54;6.20;86.30
16521;DHT22;8373;48.110;11.522;2022-11-14T07:28:21;6.20;86.70
16521;DHT22;8373;48.110;11.522;2022-11-14T07:30:49;6.20;87.50
16521;DHT22;8373;48.110;11.522;2022-11-14T07:33:16;6.30;87.60
16521;DHT22;8373;48.110;11.522;2022-11-14T07:35:43;6.30;88.00
16521;DHT22;8373;48.110;11.522;2022-11-14T07:38:10;6.50;88.10
16521;DHT22;8373;48.110;11.522;2022-11-14T07:40:37;6.50;88.00
16521;DHT22;8373;48.110;11.522;2022-11-14T07:43:04;6.60;88.90
16521;DHT22;8373;48.110;11.522;2022-11-14T07:45:31;6.60;88.00
16521;DHT22;8373;48.110;11.522;2022-11-14T07:48:00;6.60;88.20
16521;DHT22;8373;48.110;11.522;2022-11-14T07:50:28;6.70;88.40
16521;DHT22;8373;48.110;11.522;2022-11-14T07:52:56;6.80;87.50
16521;DHT22;8373;48.110;11.522;2022-11-14T07:55:23;6.80;86.70
16521;DHT22;8373;48.110;11.522;2022-11-14T07:57:54;6.90;86.90
16521;DHT22;8373;48.110;11.522;2022-11-14T08:00:21;7.00;87.20
16521;DHT22;8373;48.110;11.522;2022-11-14T08:02:48;7.20;86.90
16521;DHT22;8373;48.110;11.522;2022-11-14T08:05:16;7.40;86.20
16521;DHT22;8373;48.110;11.522;2022-11-14T08:07:43;7.80;85.50
16521;DHT22;8373;48.110;11.522;2022-11-14T08:10:11;8.00;84.10
16521;DHT22;8373;48.110;11.522;2022-11-14T08:12:39;8.30;83.50
16521;DHT22;8373;48.110;11.522;2022-11-14T08:15:07;8.60;83.00
16521;DHT22;8373;48.110;11.522;2022-11-14T08:17:35;8.90;81.30
16521;DHT22;8373;48.110;11.522;2022-11-14T08:20:02;9.10;79.50
16521;DHT22;8373;48.110;11.522;2022-11-14T08:22:31;9.30;78.50
16521;DHT22;8373;48.110;11.522;2022-11-14T08:24:58;9.40;77.90
16521;DHT22;8373;48.110;11.522;2022-11-14T08:27:25;9.40;77.60
16521;DHT22;8373;48.110;11.522;2022-11-14T08:29:52;9.40;76.80
16521;DHT22;8373;48.110;11.522;2022-11-14T08:32:19;9.50;77.70
16521;DHT22;8373;48.110;11.522;2022-11-14T08:34:46;9.70;77.30
16521;DHT22;8373;48.110;11.522;2022-11-14T08:37:14;9.80;76.40
16521;DHT22;8373;48.110;11.522;2022-11-14T08:39:42;10.00;74.80
16521;DHT22;8373;48.110;11.522;2022-11-14T08:42:09;10.10;74.50
16521;DHT22;8373;48.110;11.522;2022-11-14T08:44:36;10.10;74.10
16521;DHT22;8373;48.110;11.522;2022-11-14T08:47:03;10.20;73.80
16521;DHT22;8373;48.110;11.522;2022-11-14T08:49:30;10.30;73.60
16521;DHT22;8373;48.110;11.522;2022-11-14T08:51:57;10.50;73.10
16521;DHT22;8373;48.110;11.522;2022-11-14T08:54:29;10.80;72.60
16521;DHT22;8373;48.110;11.522;2022-11-14T08:56:58;11.00;71.60
16521;DHT22;8373;48.110;11.522;2022-11-14T08:59:25;11.20;71.40
16521;DHT22;8373;48.110;11.522;2022-11-14T09:01:52;11.40;70.70
16521;DHT22;8373;48.110;11.522;2022-11-14T09:04:19;11.50;69.70
16521;DHT22;8373;48.110;11.522;2022-11-14T09:06:46;11.70;69.10
16521;DHT22;8373;48.110;11.522;2022-11-14T09:09:13;12.00;69.00
16521;DHT22;8373;48.110;11.522;2022-11-14T09:11:40;12.30;69.30
16521;DHT22;8373;48.110;11.522;2022-11-14T09:14:09;12.60;67.20
16521;DHT22;8373;48.110;11.522;2022-11-14T09:16:36;12.90;65.80
16521;DHT22;8373;48.110;11.522;2022-11-14T09:19:03;13.00;64.70
16521;DHT22;8373;48.110;11.522;2022-11-14T09:21:30;13.20;64.00
16521;DHT22;8373;48.110;11.522;2022-11-14T09:23:57;13.30;63.30
16521;DHT22;8373;48.110;11.522;2022-11-14T09:26:24;13.50;63.00
16521;DHT22;8373;48.110;11.522;2022-11-14T09:28:51;13.80;62.70
16521;DHT22;8373;48.110;11.522;2022-11-14T09:31:19;14.30;61.80
16521;DHT22;8373;48.110;11.522;2022-11-14T09:33:46;15.20;60.70
16521;DHT22;8373;48.110;11.522;2022-11-14T09:36:13;16.30;58.10
16521;DHT22;8373;48.110;11.522;2022-11-14T09:38:41;18.30;54.90
16521;DHT22;8373;48.110;11.522;2022-11-14T09:41:21;19.90;49.80
16521;DHT22;8373;48.110;11.522;2022-11-14T09:44:08;20.80;45.80
16521;DHT22;8373;48.110;11.522;2022-11-14T09:46:40;22.10;43.80
16521;DHT22;8373;48.110;11.522;2022-11-14T09:49:19;23.30;40.80
16521;DHT22;8373;48.110;11.522;2022-11-14T09:51:53;24.10;38.70
16521;DHT22;8373;48.110;11.522;2022-11-14T09:54:25;25.00;36.60
16521;DHT22;8373;48.110;11.522;2022-11-14T09:56:53;25.30;35.00
16521;DHT22;8373;48.110;11.522;2022-11-14T09:59:20;25.70;34.60
16521;DHT22;8373;48.110;11.522;2022-11-14T10:01:54;26.20;33.20
16521;DHT22;8373;48.110;11.522;2022-11-14T10:04:30;26.40;31.40
16521;DHT22;8373;48.110;11.522;2022-11-14T10:07:14;26.30;31.40
16521;DHT22;8373;48.110;11.522;2022-11-14T10:10:00;26.00;31.40
16521;DHT22;8373;48.110;11.522;2022-11-14T10:12:39;25.80;31.70
16521;DHT22;8373;48.110;11.522;2022-11-14T10:15:17;25.40;32.10
16521;DHT22;8373;48.110;11.522;2022-11-14T10:18:17;25.50;32.80
16521;DHT22;8373;48.110;11.522;2022-11-14T10:20:53;25.90;32.30
16521;DHT22;8373;48.110;11.522;2022-11-14T10:23:29;26.10;31.30
16521;DHT22;8373;48.110;11.522;2022-11-14T10:26:06;26.50;31.40
16521;DHT22;8373;48.110;11.522;2022-11-14T10:28:53;27.10;30.00
16521;DHT22;8373;48.110;11.522;2022-11-14T10:31:32;27.10;29.40
16521;DHT22;8373;48.110;11.522;2022-11-14T10:34:06;27.00;30.10
16521;DHT22;8373;48.110;11.522;2022-11-14T10:36:55;27.80;29.00
16521;DHT22;8373;48.110;11.522;2022-11-14T10:39:28;28.40;28.10
16521;DHT22;8373;48.110;11.522;2022-11-14T10:42:00;28.90;27.20
16521;DHT22;8373;48.110;11.522;2022-11-14T10:44:31;29.10;27.20
16521;DHT22;8373;48.110;11.522;2022-11-14T10:47:02;29.10;26.80
16521;DHT22;8373;48.110;11.522;2022-11-14T10:49:34;29.00;27.00
16521;DHT22;8373;48.110;11.522;2022-11-14T10:52:06;29.30;27.50
16521;DHT22;8373;48.110;11.522;2022-11-14T10:54:40;29.70;27.50
16521;DHT22;8373;48.110;11.522;2022-11-14T10:57:14;30.10;27.50
16521;DHT22;8373;48.110;11.522;2022-11-14T10:59:41;30.70;26.90
16521;DHT22;8373;48.110;11.522;2022-11-14T11:02:09;30.30;26.80
16521;DHT22;8373;48.110;11.522;2022-11-14T11:04:38;30.00;27.20
16521;DHT22;8373;48.110;11.522;2022-11-14T11:07:19;29.50;28.40
16521;DHT22;8373;48.110;11.522;2022-11-14T11:10:05;28.90;29.20
16521;DHT22;8373;48.110;11.522;2022-11-14T11:12:51;28.40;30.00
16521;DHT22;8373;48.110;11.522;2022-11-14T11:15:21;27.70;30.60
16521;DHT22;8373;48.110;11.522;2022-11-14T11:17:54;28.50;30.30
16521;DHT22;8373;48.110;11.522;2022-11-14T11:20:29;28.80;30.00
16521;DHT22;8373;48.110;11.522;2022-11-14T11:23:05;28.30;29.60
16521;DHT22;8373;48.110;11.522;2022-11-14T11:25:33;27.80;30.00
16521;DHT22;8373;48.110;11.522;2022-11-14T11:28:05;27.80;30.20
16521;DHT22;8373;48.110;11.522;2022-11-14T11:30:33;28.20;30.00
16521;DHT22;8373;48.110;11.522;2022-11-14T11:33:22;27.80;30.40
16521;DHT22;8373;48.110;11.522;2022-11-14T11:35:52;28.30;30.10
16521;DHT22;8373;48.110;11.522;2022-11-14T11:38:21;28.90;29.10
16521;DHT22;8373;48.110;11.522;2022-11-14T11:40:52;29.20;28.70
16521;DHT22;8373;48.110;11.522;2022-11-14T11:43:28;30.10;28.30
16521;DHT22;8373;48.110;11.522;2022-11-14T11:45:58;29.90;27.60
16521;DHT22;8373;48.110;11.522;2022-11-14T11:48:33;28.90;28.40
16521;DHT22;8373;48.110;11.522;2022-11-14T11:51:05;28.80;29.00
16521;DHT22;8373;48.110;11.522;2022-11-14T11:53:38;28.70;29.40
16521;DHT22;8373;48.110;11.522;2022-11-14T11:56:11;28.60;29.40
16521;DHT22;8373;48.110;11.522;2022-11-14T11:58:43;28.30;29.30
16521;DHT22;8373;48.110;11.522;2022-11-14T12:01:11;28.00;30.70
16521;DHT22;8373;48.110;11.522;2022-11-14T12:03:41;27.20;30.80
16521;DHT22;8373;48.110;11.522;2022-11-14T12:06:14;26.00;32.50
16521;DHT22;8373;48.110;11.522;2022-11-14T12:08:53;25.10;34.10
16521;DHT22;8373;48.110;11.522;2022-11-14T12:11:26;24.40;35.50
16521;DHT22;8373;48.110;11.522;2022-11-14T12:17:07;22.50;38.10
16521;DHT22;8373;48.110;11.522;2022-11-14T12:19:46;22.10;39.10
16521;DHT22;8373;48.110;11.522;2022-11-14T12:22:30;21.60;39.70
16521;DHT22;8373;48.110;11.522;2022-11-14T12:28:07;21.00;41.40
16521;DHT22;8373;48.110;11.522;2022-11-14T12:30:37;21.00;41.50
16521;DHT22;8373;48.110;11.522;2022-11-14T12:33:09;20.90;41.80
16521;DHT22;8373;48.110;11.522;2022-11-14T12:35:46;20.80;41.50
16521;DHT22;8373;48.110;11.522;2022-11-14T12:38:17;20.60;41.80
16521;DHT22;8373;48.110;11.522;2022-11-14T12:40:50;20.20;41.20
16521;DHT22;8373;48.110;11.522;2022-11-14T12:43:32;20.10;42.20
16521;DHT22;8373;48.110;11.522;2022-11-14T12:46:02;20.00;42.90
16521;DHT22;8373;48.110;11.522;2022-11-14T12:48:35;19.80;43.10
16521;DHT22;8373;48.110;11.522;2022-11-14T12:51:03;19.50;42.80
16521;DHT22;8373;48.110;11.522;2022-11-14T12:53:39;19.00;43.30
16521;DHT22;8373;48.110;11.522;2022-11-14T12:56:14;18.90;44.30
16521;DHT22;8373;48.110;11.522;2022-11-14T12:59:21;18.90;44.70
16521;DHT22;8373;48.110;11.522;2022-11-14T13:02:05;18.90;44.60
16521;DHT22;8373;48.110;11.522;2022-11-14T13:04:42;19.10;45.00
16521;DHT22;8373;48.110;11.522;2022-11-14T13:07:22;19.00;44.80
16521;DHT22;8373;48.110;11.522;2022-11-14T13:10:10;18.60;45.40
16521;DHT22;8373;48.110;11.522;2022-11-14T13:12:38;18.40;45.90
16521;DHT22;8373;48.110;11.522;2022-11-14T13:15:26;18.20;46.60
16521;DHT22;8373;48.110;11.522;2022-11-14T13:18:20;18.20;47.10
16521;DHT22;8373;48.110;11.522;2022-11-14T13:21:14;18.10;47.70
16521;DHT22;8373;48.110;11.522;2022-11-14T13:24:00;18.00;47.60
16521;DHT22;8373;48.110;11.522;2022-11-14T13:26:49;17.80;48.30
16521;DHT22;8373;48.110;11.522;2022-11-14T13:29:50;17.80;49.00
16521;DHT22;8373;48.110;11.522;2022-11-14T13:35:56;17.60;49.60
16521;DHT22;8373;48.110;11.522;2022-11-14T13:39:03;17.40;50.20
16521;DHT22;8373;48.110;11.522;2022-11-14T13:42:10;17.10;50.80
16521;DHT22;8373;48.110;11.522;2022-11-14T13:48:10;17.00;52.20
16521;DHT22;8373;48.110;11.522;2022-11-14T13:50:39;17.00;52.30
16521;DHT22;8373;48.110;11.522;2022-11-14T13:53:12;17.00;52.20
16521;DHT22;8373;48.110;11.522;2022-11-14T13:55:52;17.10;52.50
16521;DHT22;8373;48.110;11.522;2022-11-14T13:58:33;17.00;52.90
16521;DHT22;8373;48.110;11.522;2022-11-14T14:01:12;16.90;52.60
16521;DHT22;8373;48.110;11.522;2022-11-14T14:03:57;16.80;53.10
16521;DHT22;8373;48.110;11.522;2022-11-14T14:06:37;16.80;53.30
16521;DHT22;8373;48.110;11.522;2022-11-14T14:09:17;16.80;53.30
16521;DHT22;8373;48.110;11.522;2022-11-14T14:11:57;16.80;53.40
16521;DHT22;8373;48.110;11.522;2022-11-14T14:14:54;16.80;53.60
16521;DHT22;8373;48.110;11.522;2022-11-14T14:17:29;16.80;53.30
16521;DHT22;8373;48.110;11.522;2022-11-14T14:20:05;16.80;53.30
16521;DHT22;8373;48.110;11.522;2022-11-14T14:22:44;16.70;53.00
16521;DHT22;8373;48.110;11.522;2022-11-14T14:25:19;16.50;53.40
16521;DHT22;8373;48.110;11.522;2022-11-14T14:27:59;16.40;53.60
16521;DHT22;8373;48.110;11.522;2022-11-14T14:30:30;16.30;54.00
16521;DHT22;8373;48.110;11.522;2022-11-14T14:33:11;16.20;54.40
16521;DHT22;8373;48.110;11.522;2022-11-14T14:35:48;16.00;54.70
16521;DHT22;8373;48.110;11.522;2022-11-14T14:38:22;15.90;55.10
16521;DHT22;8373;48.110;11.522;2022-11-14T14:40:53;15.80;55.20
16521;DHT22;8373;48.110;11.522;2022-11-14T14:43:24;15.70;55.50
16521;DHT22;8373;48.110;11.522;2022-11-14T14:45:56;15.70;55.70
16521;DHT22;8373;48.110;11.522;2022-11-14T14:48:26;15.60;55.70
16521;DHT22;8373;48.110;11.522;2022-11-14T14:50:55;15.50;55.70
16521;DHT22;8373;48.110;11.522;2022-11-14T14:53:25;15.40;55.90
16521;DHT22;8373;48.110;11.522;2022-11-14T14:55:54;15.40;56.20
16521;DHT22;8373;48.110;11.522;2022-11-14T14:58:24;15.30;56.30
16521;DHT22;8373;48.110;11.522;2022-11-14T15:00:54;15.20;56.50
16521;DHT22;8373;48.110;11.522;2022-11-14T15:03:24;15.20;56.70
16521;DHT22;8373;48.110;11.522;2022-11-14T15:05:59;15.10;56.80
16521;DHT22;8373;48.110;11.522;2022-11-14T15:08:27;15.00;57.00
16521;DHT22;8373;48.110;11.522;2022-11-14T15:10:57;15.00;57.40
16521;DHT22;8373;48.110;11.522;2022-11-14T15:13:26;14.90;57.60
16521;DHT22;8373;48.110;11.522;2022-11-14T15:15:54;14.80;57.80
16521;DHT22;8373;48.110;11.522;2022-11-14T15:18:25;14.70;57.90
16521;DHT22;8373;48.110;11.522;2022-11-14T15:21:09;14.70;58.00
16521;DHT22;8373;48.110;11.522;2022-11-14T15:23:37;14.70;58.20
16521;DHT22;8373;48.110;11.522;2022-11-14T15:26:13;14.60;58.20
16521;DHT22;8373;48.110;11.522;2022-11-14T15:28:42;14.60;58.30
16521;DHT22;8373;48.110;11.522;2022-11-14T15:31:16;14.50;58.40
16521;DHT22;8373;48.110;11.522;2022-11-14T15:33:59;14.50;58.70
16521;DHT22;8373;48.110;11.522;2022-11-14T15:36:27;14.50;58.90
16521;DHT22;8373;48.110;11.522;2022-11-14T15:38:58;14.40;59.00
16521;DHT22;8373;48.110;11.522;2022-11-14T15:41:26;14.30;59.20
16521;DHT22;8373;48.110;11.522;2022-11-14T15:43:55;14.30;59.40
16521;DHT22;8373;48.110;11.522;2022-11-14T15:46:47;14.20;59.50
16521;DHT22;8373;48.110;11.522;2022-11-14T15:49:23;14.10;59.80
16521;DHT22;8373;48.110;11.522;2022-11-14T15:51:52;14.00;60.10
16521;DHT22;8373;48.110;11.522;2022-11-14T15:54:22;13.90;60.80
16521;DHT22;8373;48.110;11.522;2022-11-14T15:56:49;13.70;61.40
16521;DHT22;8373;48.110;11.522;2022-11-14T15:59:16;13.50;61.90
16521;DHT22;8373;48.110;11.522;2022-11-14T16:01:45;13.30;62.70
16521;DHT22;8373;48.110;11.522;2022-11-14T16:04:15;13.20;63.40
16521;DHT22;8373;48.110;11.522;2022-11-14T16:06:44;13.10;63.80
16521;DHT22;8373;48.110;11.522;2022-11-14T16:09:16;13.10;64.20
16521;DHT22;8373;48.110;11.522;2022-11-14T16:11:43;13.00;64.60
16521;DHT22;8373;48.110;11.522;2022-11-14T16:14:11;13.00;65.00